KVBG/VBG METAR and TAF weather

Enter ICAO airport designator
Station Type Date Time Source
KVBG METAR 2022/06/29 00:58 UTC NOAA

KVBG 290058Z AUTO 36008KT 9SM CLR 17/12 A3000 RMK AO2 SLP162 T01700120 $


Station Type Date Time Source
KVBG Decoded METAR 2022/06/29 00:58 UTC NOAA

Lompoc, Vandenberg Air Force Base, CA, United States (KVBG) 34-43-46N 120-34-36W 121M
Jun 28, 2022 - 08:58 PM EDT / 2022.06.29 0058 UTC
Wind: from the N (360 degrees) at 9 MPH (8 KT):0
Visibility: 9 mile(s):0
Sky conditions: clear
Temperature: 62.6 F (17.0 C)
Dew Point: 53.6 F (12.0 C)
Relative Humidity: 72%
Pressure (altimeter): 30 in. Hg (1015 hPa)
ob: KVBG 290058Z AUTO 36008KT 9SM CLR 17/12 A3000 RMK AO2 SLP162 T01700120
cycle: 1

Station Type Date Time Source
KVBG TAF 2022/06/28 22:03 UTC NOAA

TAF KVBG 282200Z 2822/3004 33009KT 9999 FEW004 QNH3000INS
BECMG 2900/2901 35009KT 4800 BR BKN006 QNH2997INS
BECMG 2901/2902 36007KT 3200 BR OVC004 QNH2997INS
BECMG 2904/2905 VRB06KT 0800 FG VV001 QNH3000INS
BECMG 2908/2909 VRB06KT 0400 FG VV001 QNH3002INS
BECMG 2915/2916 VRB06KT 4800 BR BKN002 QNH3004INS
BECMG 2917/2918 32009KT 9999 NSW SCT004 QNH3005INS
BECMG 3000/3001 32009KT 6000 BR BKN004 QNH3002INS TX20/2920Z TN11/2912Z LAST NO
AMDS AFT 2900 NEXT 2914

Example: see airport list